sensor_id;sensor_type;location;lat;lon;timestamp;pressure;altitude;pressure_sealevel;temperature;humidity
40502;BME280;29631;49.168;9.848;2022-07-01T00:02:18;96459.09;;;22.83;92.02
40502;BME280;29631;49.168;9.848;2022-07-01T00:04:43;96459.22;;;22.73;92.44
40502;BME280;29631;49.168;9.848;2022-07-01T00:07:09;96478.81;;;22.73;92.00
40502;BME280;29631;49.168;9.848;2022-07-01T00:09:37;96520.03;;;22.69;91.78
40502;BME280;29631;49.168;9.848;2022-07-01T00:12:04;96549.69;;;22.59;91.84
40502;BME280;29631;49.168;9.848;2022-07-01T00:14:31;96564.25;;;22.53;91.81
40502;BME280;29631;49.168;9.848;2022-07-01T00:16:57;96568.56;;;22.54;91.75
40502;BME280;29631;49.168;9.848;2022-07-01T00:19:23;96562.13;;;22.50;92.00
40502;BME280;29631;49.168;9.848;2022-07-01T00:21:50;96554.69;;;22.42;92.07
40502;BME280;29631;49.168;9.848;2022-07-01T00:24:16;96544.53;;;22.34;91.81
40502;BME280;29631;49.168;9.848;2022-07-01T00:26:42;96577.78;;;22.43;91.75
40502;BME280;29631;49.168;9.848;2022-07-01T00:29:08;96586.44;;;22.35;92.21
40502;BME280;29631;49.168;9.848;2022-07-01T00:31:34;96588.59;;;22.28;91.75
40502;BME280;29631;49.168;9.848;2022-07-01T00:34:01;96602.59;;;22.25;91.54
40502;BME280;29631;49.168;9.848;2022-07-01T00:36:27;96615.53;;;22.18;91.82
40502;BME280;29631;49.168;9.848;2022-07-01T00:38:53;96615.28;;;22.20;91.94
40502;BME280;29631;49.168;9.848;2022-07-01T00:41:19;96624.06;;;22.25;91.85
40502;BME280;29631;49.168;9.848;2022-07-01T00:43:44;96616.03;;;22.25;91.99
40502;BME280;29631;49.168;9.848;2022-07-01T00:46:11;96622.72;;;22.28;91.70
40502;BME280;29631;49.168;9.848;2022-07-01T00:48:38;96639.13;;;22.31;91.84
40502;BME280;29631;49.168;9.848;2022-07-01T00:51:03;96660.09;;;22.29;91.66
40502;BME280;29631;49.168;9.848;2022-07-01T00:53:29;96668.44;;;22.23;91.68
40502;BME280;29631;49.168;9.848;2022-07-01T00:55:56;96670.06;;;22.19;91.74
40502;BME280;29631;49.168;9.848;2022-07-01T00:58:22;96670.94;;;22.09;91.63
40502;BME280;29631;49.168;9.848;2022-07-01T01:00:47;96677.63;;;22.12;91.58
40502;BME280;29631;49.168;9.848;2022-07-01T01:03:13;96691.56;;;22.19;91.47
40502;BME280;29631;49.168;9.848;2022-07-01T01:05:40;96666.31;;;22.15;91.71
40502;BME280;29631;49.168;9.848;2022-07-01T01:08:08;96663.91;;;22.13;91.62
40502;BME280;29631;49.168;9.848;2022-07-01T01:10:37;96649.41;;;22.14;91.88
40502;BME280;29631;49.168;9.848;2022-07-01T01:13:03;96648.88;;;22.17;91.93
40502;BME280;29631;49.168;9.848;2022-07-01T01:15:32;96643.22;;;22.19;92.21
40502;BME280;29631;49.168;9.848;2022-07-01T01:17:58;96638.59;;;22.24;92.19
40502;BME280;29631;49.168;9.848;2022-07-01T01:20:24;96606.34;;;22.24;92.05
40502;BME280;29631;49.168;9.848;2022-07-01T01:22:50;96601.75;;;22.35;92.39
40502;BME280;29631;49.168;9.848;2022-07-01T01:25:16;96564.44;;;22.28;92.41
40502;BME280;29631;49.168;9.848;2022-07-01T01:27:42;96548.03;;;22.30;92.45
40502;BME280;29631;49.168;9.848;2022-07-01T01:30:10;96534.34;;;22.26;92.64
40502;BME280;29631;49.168;9.848;2022-07-01T01:32:41;96516.41;;;22.17;92.90
40502;BME280;29631;49.168;9.848;2022-07-01T01:35:09;96508.94;;;22.14;93.00
40502;BME280;29631;49.168;9.848;2022-07-01T01:37:35;96502.84;;;22.03;92.94
40502;BME280;29631;49.168;9.848;2022-07-01T01:40:03;96509.56;;;22.01;92.79
40502;BME280;29631;49.168;9.848;2022-07-01T01:42:28;96546.88;;;22.02;93.15
40502;BME280;29631;49.168;9.848;2022-07-01T01:44:54;96559.81;;;21.95;93.20
40502;BME280;29631;49.168;9.848;2022-07-01T01:47:20;96539.19;;;21.86;92.95
40502;BME280;29631;49.168;9.848;2022-07-01T01:49:46;96483.44;;;21.73;92.82
40502;BME280;29631;49.168;9.848;2022-07-01T01:52:12;96478.53;;;21.85;92.84
40502;BME280;29631;49.168;9.848;2022-07-01T01:54:37;96472.38;;;21.80;92.56
40502;BME280;29631;49.168;9.848;2022-07-01T01:57:04;96452.56;;;21.76;92.55
40502;BME280;29631;49.168;9.848;2022-07-01T01:59:30;96477.25;;;21.73;92.79
40502;BME280;29631;49.168;9.848;2022-07-01T02:01:56;96472.50;;;21.65;93.23
40502;BME280;29631;49.168;9.848;2022-07-01T02:04:22;96539.56;;;21.70;93.01
40502;BME280;29631;49.168;9.848;2022-07-01T02:06:52;96542.59;;;21.53;92.47
40502;BME280;29631;49.168;9.848;2022-07-01T02:09:18;96532.66;;;21.59;92.54
40502;BME280;29631;49.168;9.848;2022-07-01T02:11:44;96527.78;;;21.66;92.76
40502;BME280;29631;49.168;9.848;2022-07-01T02:14:09;96507.88;;;21.67;92.71
40502;BME280;29631;49.168;9.848;2022-07-01T02:16:35;96496.16;;;21.58;92.87
40502;BME280;29631;49.168;9.848;2022-07-01T02:19:01;96526.19;;;21.60;92.79
40502;BME280;29631;49.168;9.848;2022-07-01T02:21:26;96512.81;;;21.50;92.69
40502;BME280;29631;49.168;9.848;2022-07-01T02:23:54;96525.69;;;21.58;92.96
40502;BME280;29631;49.168;9.848;2022-07-01T02:26:20;96563.50;;;21.61;92.92
40502;BME280;29631;49.168;9.848;2022-07-01T02:28:46;96555.47;;;21.46;93.05
40502;BME280;29631;49.168;9.848;2022-07-01T02:31:11;96587.94;;;21.50;93.36
40502;BME280;29631;49.168;9.848;2022-07-01T02:33:37;96585.53;;;21.48;93.13
40502;BME280;29631;49.168;9.848;2022-07-01T02:36:03;96571.88;;;21.35;92.92
40502;BME280;29631;49.168;9.848;2022-07-01T02:38:29;96595.50;;;21.33;93.17
40502;BME280;29631;49.168;9.848;2022-07-01T02:40:55;96601.69;;;21.28;93.17
40502;BME280;29631;49.168;9.848;2022-07-01T02:43:21;96578.91;;;21.21;93.16
40502;BME280;29631;49.168;9.848;2022-07-01T02:45:47;96578.09;;;21.25;93.12
40502;BME280;29631;49.168;9.848;2022-07-01T02:48:13;96562.81;;;21.21;93.21
40502;BME280;29631;49.168;9.848;2022-07-01T02:50:39;96575.72;;;21.19;92.96
40502;BME280;29631;49.168;9.848;2022-07-01T02:53:04;96581.84;;;21.29;93.23
40502;BME280;29631;49.168;9.848;2022-07-01T02:55:30;96598.72;;;21.40;93.37
40502;BME280;29631;49.168;9.848;2022-07-01T02:57:56;96607.84;;;21.39;92.84
40502;BME280;29631;49.168;9.848;2022-07-01T03:00:22;96609.16;;;21.46;92.72
40502;BME280;29631;49.168;9.848;2022-07-01T03:02:48;96608.09;;;21.42;92.76
40502;BME280;29631;49.168;9.848;2022-07-01T03:05:14;96612.63;;;21.42;93.26
40502;BME280;29631;49.168;9.848;2022-07-01T03:07:40;96615.88;;;21.44;92.64
40502;BME280;29631;49.168;9.848;2022-07-01T03:10:08;96625.25;;;21.46;92.83
40502;BME280;29631;49.168;9.848;2022-07-01T03:12:34;96626.56;;;21.49;92.95
40502;BME280;29631;49.168;9.848;2022-07-01T03:15:15;96619.09;;;21.46;93.21
40502;BME280;29631;49.168;9.848;2022-07-01T03:17:46;96591.19;;;21.42;93.52
40502;BME280;29631;49.168;9.848;2022-07-01T03:20:15;96605.66;;;21.56;93.16
40502;BME280;29631;49.168;9.848;2022-07-01T03:22:44;96615.84;;;21.54;93.12
40502;BME280;29631;49.168;9.848;2022-07-01T03:25:10;96634.06;;;21.62;93.41
40502;BME280;29631;49.168;9.848;2022-07-01T03:27:36;96631.41;;;21.57;93.07
40502;BME280;29631;49.168;9.848;2022-07-01T03:30:04;96622.53;;;21.51;93.19
40502;BME280;29631;49.168;9.848;2022-07-01T03:32:30;96637.31;;;21.54;93.14
40502;BME280;29631;49.168;9.848;2022-07-01T03:34:56;96638.41;;;21.58;93.52
40502;BME280;29631;49.168;9.848;2022-07-01T03:37:22;96633.00;;;21.48;93.54
40502;BME280;29631;49.168;9.848;2022-07-01T03:39:50;96647.25;;;21.53;93.09
40502;BME280;29631;49.168;9.848;2022-07-01T03:42:16;96624.47;;;21.36;93.23
40502;BME280;29631;49.168;9.848;2022-07-01T03:44:43;96645.09;;;21.45;93.07
40502;BME280;29631;49.168;9.848;2022-07-01T03:47:09;96645.41;;;21.39;93.24
40502;BME280;29631;49.168;9.848;2022-07-01T03:49:36;96661.47;;;21.44;93.32
40502;BME280;29631;49.168;9.848;2022-07-01T03:52:05;96673.00;;;21.44;93.28
40502;BME280;29631;49.168;9.848;2022-07-01T03:54:31;96678.94;;;21.36;92.95
40502;BME280;29631;49.168;9.848;2022-07-01T03:57:10;96701.19;;;21.37;93.14
40502;BME280;29631;49.168;9.848;2022-07-01T03:59:38;96695.31;;;21.40;93.09
40502;BME280;29631;49.168;9.848;2022-07-01T04:02:05;96704.94;;;21.41;92.98
40502;BME280;29631;49.168;9.848;2022-07-01T04:04:32;96694.78;;;21.33;92.75
40502;BME280;29631;49.168;9.848;2022-07-01T04:07:00;96695.31;;;21.30;92.41
40502;BME280;29631;49.168;9.848;2022-07-01T04:09:28;96684.59;;;21.20;92.71
40502;BME280;29631;49.168;9.848;2022-07-01T04:11:54;96698.81;;;21.20;92.79
40502;BME280;29631;49.168;9.848;2022-07-01T04:14:20;96717.56;;;21.20;92.36
40502;BME280;29631;49.168;9.848;2022-07-01T04:16:46;96724.28;;;21.18;92.53
40502;BME280;29631;49.168;9.848;2022-07-01T04:19:14;96731.81;;;21.26;92.72
40502;BME280;29631;49.168;9.848;2022-07-01T04:21:40;96723.22;;;21.19;92.63
40502;BME280;29631;49.168;9.848;2022-07-01T04:24:24;96722.69;;;21.07;92.91
40502;BME280;29631;49.168;9.848;2022-07-01T04:26:51;96735.56;;;21.05;92.38
40502;BME280;29631;49.168;9.848;2022-07-01T04:29:18;96754.31;;;21.15;92.83
40502;BME280;29631;49.168;9.848;2022-07-01T04:31:44;96763.47;;;21.14;92.63
40502;BME280;29631;49.168;9.848;2022-07-01T04:34:10;96742.53;;;21.01;93.04
40502;BME280;29631;49.168;9.848;2022-07-01T04:36:37;96766.38;;;21.08;92.52
40502;BME280;29631;49.168;9.848;2022-07-01T04:39:04;96732.84;;;20.90;92.52
40502;BME280;29631;49.168;9.848;2022-07-01T04:41:31;96758.06;;;21.04;92.66
40502;BME280;29631;49.168;9.848;2022-07-01T04:44:16;96766.13;;;21.04;92.50
40502;BME280;29631;49.168;9.848;2022-07-01T04:46:42;96754.34;;;20.95;92.95
40502;BME280;29631;49.168;9.848;2022-07-01T04:49:08;96780.63;;;21.08;92.91
40502;BME280;29631;49.168;9.848;2022-07-01T04:51:35;96787.03;;;21.02;92.72
40502;BME280;29631;49.168;9.848;2022-07-01T04:54:02;96796.16;;;21.06;92.84
40502;BME280;29631;49.168;9.848;2022-07-01T04:56:28;96795.63;;;21.09;92.98
40502;BME280;29631;49.168;9.848;2022-07-01T04:58:57;96796.97;;;21.07;93.21
40502;BME280;29631;49.168;9.848;2022-07-01T05:01:23;96791.31;;;21.03;92.81
40502;BME280;29631;49.168;9.848;2022-07-01T05:03:50;96802.31;;;21.07;93.01
40502;BME280;29631;49.168;9.848;2022-07-01T05:06:16;96784.06;;;20.99;93.25
40502;BME280;29631;49.168;9.848;2022-07-01T05:08:42;96788.13;;;21.01;93.19
40502;BME280;29631;49.168;9.848;2022-07-01T05:11:08;96786.78;;;21.04;93.20
40502;BME280;29631;49.168;9.848;2022-07-01T05:13:34;96772.81;;;20.97;93.31
40502;BME280;29631;49.168;9.848;2022-07-01T05:16:00;96760.50;;;20.96;93.24
40502;BME280;29631;49.168;9.848;2022-07-01T05:18:26;96758.34;;;20.98;93.42
40502;BME280;29631;49.168;9.848;2022-07-01T05:21:11;96770.13;;;21.07;92.91
40502;BME280;29631;49.168;9.848;2022-07-01T05:23:55;96767.72;;;21.05;93.41
40502;BME280;29631;49.168;9.848;2022-07-01T05:26:20;96772.03;;;21.01;93.43
40502;BME280;29631;49.168;9.848;2022-07-01T05:28:47;96784.34;;;21.02;93.09
40502;BME280;29631;49.168;9.848;2022-07-01T05:31:13;96801.53;;;21.06;93.61
40502;BME280;29631;49.168;9.848;2022-07-01T05:33:39;96799.38;;;20.98;93.24
40502;BME280;29631;49.168;9.848;2022-07-01T05:36:05;96813.59;;;21.04;93.25
40502;BME280;29631;49.168;9.848;2022-07-01T05:38:31;96797.47;;;20.94;93.17
40502;BME280;29631;49.168;9.848;2022-07-01T05:40:57;96814.38;;;21.04;93.56
40502;BME280;29631;49.168;9.848;2022-07-01T05:43:23;96803.66;;;20.99;93.20
40502;BME280;29631;49.168;9.848;2022-07-01T05:45:48;96799.41;;;21.08;93.39
40502;BME280;29631;49.168;9.848;2022-07-01T05:48:14;96777.13;;;21.08;93.47
40502;BME280;29631;49.168;9.848;2022-07-01T05:50:40;96784.38;;;21.12;93.64
40502;BME280;29631;49.168;9.848;2022-07-01T05:53:06;96788.13;;;21.11;93.60
40502;BME280;29631;49.168;9.848;2022-07-01T05:55:33;96791.31;;;21.03;93.68
40502;BME280;29631;49.168;9.848;2022-07-01T05:57:59;96803.66;;;21.04;93.64
40502;BME280;29631;49.168;9.848;2022-07-01T06:00:27;96812.78;;;21.03;93.56
40502;BME280;29631;49.168;9.848;2022-07-01T06:02:53;96810.09;;;20.98;93.40
40502;BME280;29631;49.168;9.848;2022-07-01T06:05:19;96796.69;;;20.93;93.50
40502;BME280;29631;49.168;9.848;2022-07-01T06:07:45;96805.28;;;21.05;94.15
40502;BME280;29631;49.168;9.848;2022-07-01T06:10:11;96772.81;;;20.97;94.09
40502;BME280;29631;49.168;9.848;2022-07-01T06:12:39;96789.72;;;20.97;94.04
40502;BME280;29631;49.168;9.848;2022-07-01T06:15:08;96796.41;;;21.00;93.87
40502;BME280;29631;49.168;9.848;2022-07-01T06:17:35;96794.00;;;20.88;93.82
40502;BME280;29631;49.168;9.848;2022-07-01T06:20:03;96808.19;;;20.94;93.85
40502;BME280;29631;49.168;9.848;2022-07-01T06:22:29;96812.78;;;20.93;93.90
40502;BME280;29631;49.168;9.848;2022-07-01T06:24:54;96812.78;;;20.93;93.68
40502;BME280;29631;49.168;9.848;2022-07-01T06:27:20;96828.84;;;21.03;93.90
40502;BME280;29631;49.168;9.848;2022-07-01T06:29:50;96832.59;;;21.02;93.92
40502;BME280;29631;49.168;9.848;2022-07-01T06:32:16;96839.59;;;21.03;94.08
40502;BME280;29631;49.168;9.848;2022-07-01T06:34:41;96843.88;;;20.94;93.91
40502;BME280;29631;49.168;9.848;2022-07-01T06:37:07;96837.19;;;20.97;93.85
40502;BME280;29631;49.168;9.848;2022-07-01T06:39:33;96840.13;;;21.00;93.65
40502;BME280;29631;49.168;9.848;2022-07-01T06:41:59;96839.59;;;20.98;93.89
40502;BME280;29631;49.168;9.848;2022-07-01T06:44:25;96833.16;;;20.99;94.00
40502;BME280;29631;49.168;9.848;2022-07-01T06:46:50;96834.78;;;21.00;94.06
40502;BME280;29631;49.168;9.848;2022-07-01T06:49:17;96832.34;;;20.99;94.11
40502;BME280;29631;49.168;9.848;2022-07-01T06:51:43;96844.44;;;21.06;93.95
40502;BME280;29631;49.168;9.848;2022-07-01T06:54:08;96837.47;;;21.05;94.04
40502;BME280;29631;49.168;9.848;2022-07-01T06:56:34;96827.00;;;21.04;94.19
40502;BME280;29631;49.168;9.848;2022-07-01T06:59:00;96825.13;;;21.04;94.16
40502;BME280;29631;49.168;9.848;2022-07-01T07:01:27;96825.66;;;21.01;93.86
40502;BME280;29631;49.168;9.848;2022-07-01T07:03:53;96839.06;;;21.06;94.08
40502;BME280;29631;49.168;9.848;2022-07-01T07:06:19;96836.63;;;21.00;93.85
40502;BME280;29631;49.168;9.848;2022-07-01T07:08:45;96829.94;;;21.02;94.11
40502;BME280;29631;49.168;9.848;2022-07-01T07:11:10;96818.13;;;20.93;93.81
40502;BME280;29631;49.168;9.848;2022-07-01T07:13:36;96837.97;;;21.02;93.93
40502;BME280;29631;49.168;9.848;2022-07-01T07:16:03;96854.63;;;21.09;94.18
40502;BME280;29631;49.168;9.848;2022-07-01T07:18:29;96852.47;;;21.06;94.12
40502;BME280;29631;49.168;9.848;2022-07-01T07:20:54;96860.53;;;21.06;94.75
40502;BME280;29631;49.168;9.848;2022-07-01T07:23:20;96868.28;;;21.08;94.54
40502;BME280;29631;49.168;9.848;2022-07-01T07:25:46;96865.59;;;21.03;94.44
40502;BME280;29631;49.168;9.848;2022-07-01T07:28:12;96861.31;;;21.02;94.64
40502;BME280;29631;49.168;9.848;2022-07-01T07:30:38;96849.19;;;20.89;94.33
40502;BME280;29631;49.168;9.848;2022-07-01T07:33:04;96870.69;;;20.99;94.59
40502;BME280;29631;49.168;9.848;2022-07-01T07:35:30;96887.84;;;21.03;94.63
40502;BME280;29631;49.168;9.848;2022-07-01T07:37:55;96889.75;;;21.08;94.50
40502;BME280;29631;49.168;9.848;2022-07-01T07:40:21;96885.16;;;21.03;94.33
40502;BME280;29631;49.168;9.848;2022-07-01T07:42:48;96881.69;;;20.98;94.85
40502;BME280;29631;49.168;9.848;2022-07-01T07:45:14;96880.59;;;20.99;94.89
40502;BME280;29631;49.168;9.848;2022-07-01T07:47:46;96898.84;;;21.07;94.56
40502;BME280;29631;49.168;9.848;2022-07-01T07:50:14;96887.84;;;21.03;95.06
40502;BME280;29631;49.168;9.848;2022-07-01T07:52:41;96887.84;;;21.03;95.12
40502;BME280;29631;49.168;9.848;2022-07-01T07:55:09;96891.34;;;21.04;94.84
40502;BME280;29631;49.168;9.848;2022-07-01T07:57:41;96890.25;;;21.00;94.97
40502;BME280;29631;49.168;9.848;2022-07-01T08:00:10;96894.84;;;21.04;95.02
40502;BME280;29631;49.168;9.848;2022-07-01T08:02:36;96898.06;;;21.06;94.84
40502;BME280;29631;49.168;9.848;2022-07-01T08:05:02;96901.31;;;21.08;95.29
40502;BME280;29631;49.168;9.848;2022-07-01T08:07:27;96906.38;;;21.10;95.17
40502;BME280;29631;49.168;9.848;2022-07-01T08:09:54;96916.56;;;21.08;95.05
40502;BME280;29631;49.168;9.848;2022-07-01T08:12:21;96915.78;;;21.07;95.27
40502;BME280;29631;49.168;9.848;2022-07-01T08:14:47;96916.28;;;21.04;95.25
40502;BME280;29631;49.168;9.848;2022-07-01T08:17:13;96910.94;;;21.04;94.93
40502;BME280;29631;49.168;9.848;2022-07-01T08:19:39;96917.09;;;21.05;95.06
40502;BME280;29631;49.168;9.848;2022-07-01T08:22:04;96918.41;;;21.02;95.19
40502;BME280;29631;49.168;9.848;2022-07-01T08:24:30;96919.53;;;21.06;94.93
40502;BME280;29631;49.168;9.848;2022-07-01T08:26:56;96926.50;;;21.07;95.18
40502;BME280;29631;49.168;9.848;2022-07-01T08:29:21;96928.34;;;21.02;95.11
40502;BME280;29631;49.168;9.848;2022-07-01T08:31:47;96930.75;;;20.98;95.14
40502;BME280;29631;49.168;9.848;2022-07-01T08:34:13;96935.06;;;21.04;95.02
40502;BME280;29631;49.168;9.848;2022-07-01T08:36:38;96944.44;;;21.07;95.53
40502;BME280;29631;49.168;9.848;2022-07-01T08:39:04;96946.88;;;21.08;95.39
40502;BME280;29631;49.168;9.848;2022-07-01T08:41:30;96938.84;;;21.08;95.08
40502;BME280;29631;49.168;9.848;2022-07-01T08:43:56;96936.16;;;21.13;95.03
40502;BME280;29631;49.168;9.848;2022-07-01T08:46:22;96925.94;;;21.05;95.06
40502;BME280;29631;49.168;9.848;2022-07-01T08:48:49;96943.66;;;21.11;94.95
40502;BME280;29631;49.168;9.848;2022-07-01T08:51:15;96901.75;;;20.85;94.84
40502;BME280;29631;49.168;9.848;2022-07-01T08:53:41;96945.28;;;21.12;94.83
40502;BME280;29631;49.168;9.848;2022-07-01T08:56:06;96945.84;;;21.14;95.14
40502;BME280;29631;49.168;9.848;2022-07-01T09:01:24;96940.47;;;21.14;95.39
40502;BME280;29631;49.168;9.848;2022-07-01T09:03:55;96942.63;;;21.22;95.13
40502;BME280;29631;49.168;9.848;2022-07-01T09:06:29;96945.31;;;21.22;95.45
40502;BME280;29631;49.168;9.848;2022-07-01T09:08:56;96960.63;;;21.31;95.10
40502;BME280;29631;49.168;9.848;2022-07-01T09:11:35;96966.81;;;21.32;95.53
40502;BME280;29631;49.168;9.848;2022-07-01T09:14:12;96964.63;;;21.29;95.69
40502;BME280;29631;49.168;9.848;2022-07-01T09:16:43;96973.50;;;21.34;95.61
40502;BME280;29631;49.168;9.848;2022-07-01T09:19:11;96954.94;;;21.18;95.85
40502;BME280;29631;49.168;9.848;2022-07-01T09:21:37;96971.09;;;21.33;95.52
40502;BME280;29631;49.168;9.848;2022-07-01T09:24:34;96956.03;;;21.22;95.68
40502;BME280;29631;49.168;9.848;2022-07-01T09:27:04;96968.16;;;21.29;95.98
40502;BME280;29631;49.168;9.848;2022-07-01T09:32:10;96971.06;;;21.28;96.11
40502;BME280;29631;49.168;9.848;2022-07-01T09:34:46;96971.06;;;21.28;96.02
40502;BME280;29631;49.168;9.848;2022-07-01T09:37:20;96973.22;;;21.26;95.84
40502;BME280;29631;49.168;9.848;2022-07-01T09:39:53;96979.69;;;21.35;96.01
40502;BME280;29631;49.168;9.848;2022-07-01T09:42:22;96969.50;;;21.32;96.12
40502;BME280;29631;49.168;9.848;2022-07-01T09:47:28;96992.03;;;21.36;96.23
40502;BME280;29631;49.168;9.848;2022-07-01T09:49:56;96994.19;;;21.39;96.08
40502;BME280;29631;49.168;9.848;2022-07-01T09:52:22;96976.19;;;21.34;96.00
40502;BME280;29631;49.168;9.848;2022-07-01T09:54:50;96986.16;;;21.44;96.20
40502;BME280;29631;49.168;9.848;2022-07-01T09:57:17;96983.47;;;21.44;95.94
40502;BME280;29631;49.168;9.848;2022-07-01T09:59:43;96989.38;;;21.46;96.08
40502;BME280;29631;49.168;9.848;2022-07-01T10:02:10;96974.34;;;21.40;96.17
40502;BME280;29631;49.168;9.848;2022-07-01T10:04:40;96967.38;;;21.39;95.87
40502;BME280;29631;49.168;9.848;2022-07-01T10:10:06;96982.41;;;21.45;96.15
40502;BME280;29631;49.168;9.848;2022-07-01T10:12:46;96987.22;;;21.38;96.39
40502;BME280;29631;49.168;9.848;2022-07-01T10:15:16;96994.72;;;21.36;95.96
40502;BME280;29631;49.168;9.848;2022-07-01T10:17:49;97016.22;;;21.46;96.51
40502;BME280;29631;49.168;9.848;2022-07-01T10:20:33;97005.72;;;21.39;95.69
40502;BME280;29631;49.168;9.848;2022-07-01T10:23:07;97009.19;;;21.35;95.95
40502;BME280;29631;49.168;9.848;2022-07-01T10:25:44;96990.91;;;21.22;96.50
40502;BME280;29631;49.168;9.848;2022-07-01T10:28:28;97006.53;;;21.40;96.67
40502;BME280;29631;49.168;9.848;2022-07-01T10:30:57;97001.19;;;21.40;96.12
40502;BME280;29631;49.168;9.848;2022-07-01T10:36:12;97018.06;;;21.40;96.29
40502;BME280;29631;49.168;9.848;2022-07-01T10:41:27;97012.44;;;21.37;96.32
40502;BME280;29631;49.168;9.848;2022-07-01T10:43:58;97018.59;;;21.37;96.50
40502;BME280;29631;49.168;9.848;2022-07-01T10:49:20;96992.03;;;21.36;96.60
40502;BME280;29631;49.168;9.848;2022-07-01T10:51:54;96995.56;;;21.46;96.48
40502;BME280;29631;49.168;9.848;2022-07-01T11:00:40;97027.75;;;21.46;96.77
40502;BME280;29631;49.168;9.848;2022-07-01T11:02:40;97053.25;;;21.49;97.02
40502;BME280;29631;49.168;9.848;2022-07-01T11:05:13;97043.00;;;21.36;96.57
40502;BME280;29631;49.168;9.848;2022-07-01T11:07:44;97039.25;;;21.37;96.40
40502;BME280;29631;49.168;9.848;2022-07-01T11:10:13;97048.91;;;21.33;96.45
40502;BME280;29631;49.168;9.848;2022-07-01T11:12:41;97050.50;;;21.34;96.72
40502;BME280;29631;49.168;9.848;2022-07-01T11:15:11;97042.44;;;21.34;96.50
40502;BME280;29631;49.168;9.848;2022-07-01T11:17:44;97059.09;;;21.36;96.57
40502;BME280;29631;49.168;9.848;2022-07-01T11:20:10;97053.75;;;21.36;96.36
40502;BME280;29631;49.168;9.848;2022-07-01T11:22:36;97049.19;;;21.36;96.09
40502;BME280;29631;49.168;9.848;2022-07-01T11:25:12;97055.88;;;21.34;96.41
40502;BME280;29631;49.168;9.848;2022-07-01T11:27:40;97061.50;;;21.37;96.08
40502;BME280;29631;49.168;9.848;2022-07-01T11:30:11;97069.59;;;21.42;96.05
40502;BME280;29631;49.168;9.848;2022-07-01T11:32:44;97065.03;;;21.43;96.02
40502;BME280;29631;49.168;9.848;2022-07-01T11:35:19;97061.81;;;21.41;96.10
40502;BME280;29631;49.168;9.848;2022-07-01T11:38:15;97061.22;;;21.34;96.19
40502;BME280;29631;49.168;9.848;2022-07-01T11:41:04;97060.22;;;21.40;96.00
40502;BME280;29631;49.168;9.848;2022-07-01T11:43:39;97053.22;;;21.39;95.88
40502;BME280;29631;49.168;9.848;2022-07-01T11:46:07;97059.13;;;21.41;95.95
40502;BME280;29631;49.168;9.848;2022-07-01T11:51:14;97051.59;;;21.38;96.14
40502;BME280;29631;49.168;9.848;2022-07-01T11:53:46;97039.78;;;21.34;95.93
40502;BME280;29631;49.168;9.848;2022-07-01T11:56:13;97031.13;;;21.22;96.00
40502;BME280;29631;49.168;9.848;2022-07-01T11:58:50;97062.84;;;21.30;95.95
40502;BME280;29631;49.168;9.848;2022-07-01T12:01:32;97047.00;;;21.28;96.45
40502;BME280;29631;49.168;9.848;2022-07-01T12:04:02;97042.19;;;21.30;96.34
40502;BME280;29631;49.168;9.848;2022-07-01T12:06:29;97048.44;;;21.46;96.15
40502;BME280;29631;49.168;9.848;2022-07-01T12:08:56;97040.38;;;21.51;96.33
40502;BME280;29631;49.168;9.848;2022-07-01T12:11:24;97056.53;;;21.61;95.94
40502;BME280;29631;49.168;9.848;2022-07-01T12:13:51;97058.69;;;21.59;96.04
40502;BME280;29631;49.168;9.848;2022-07-01T12:16:18;97052.28;;;21.65;95.80
40502;BME280;29631;49.168;9.848;2022-07-01T12:19:01;97048.53;;;21.66;95.84
40502;BME280;29631;49.168;9.848;2022-07-01T12:21:29;97061.94;;;21.71;95.40
40502;BME280;29631;49.168;9.848;2022-07-01T12:24:10;97046.09;;;21.64;95.38
40502;BME280;29631;49.168;9.848;2022-07-01T12:29:28;97054.47;;;21.83;95.42
40502;BME280;29631;49.168;9.848;2022-07-01T12:32:05;97040.75;;;21.74;95.46
40502;BME280;29631;49.168;9.848;2022-07-01T12:35:05;97059.84;;;21.92;95.27
40502;BME280;29631;49.168;9.848;2022-07-01T12:37:51;97053.94;;;21.91;95.11
40502;BME280;29631;49.168;9.848;2022-07-01T12:40:23;97072.75;;;22.00;95.57
40502;BME280;29631;49.168;9.848;2022-07-01T12:42:50;97061.22;;;22.00;95.50
40502;BME280;29631;49.168;9.848;2022-07-01T12:45:23;97052.88;;;22.01;95.71
40502;BME280;29631;49.168;9.848;2022-07-01T12:47:54;97065.78;;;22.19;95.54
40502;BME280;29631;49.168;9.848;2022-07-01T12:50:28;97063.09;;;22.24;95.13
40502;BME280;29631;49.168;9.848;2022-07-01T12:53:11;97073.91;;;22.39;95.34
40502;BME280;29631;49.168;9.848;2022-07-01T12:55:44;97067.72;;;22.44;94.48
40502;BME280;29631;49.168;9.848;2022-07-01T12:58:13;97067.44;;;22.50;94.59
40502;BME280;29631;49.168;9.848;2022-07-01T13:00:44;97045.97;;;22.40;94.00
40502;BME280;29631;49.168;9.848;2022-07-01T13:03:11;97058.88;;;22.48;93.54
40502;BME280;29631;49.168;9.848;2022-07-01T13:05:39;97044.06;;;22.41;93.72
40502;BME280;29631;49.168;9.848;2022-07-01T13:08:06;97041.66;;;22.44;93.58
40502;BME280;29631;49.168;9.848;2022-07-01T13:10:32;97045.69;;;22.42;93.49
40502;BME280;29631;49.168;9.848;2022-07-01T13:12:58;97040.06;;;22.43;93.26
40502;BME280;29631;49.168;9.848;2022-07-01T13:15:25;97040.06;;;22.48;93.70
40502;BME280;29631;49.168;9.848;2022-07-01T13:17:51;97041.13;;;22.52;93.30
40502;BME280;29631;49.168;9.848;2022-07-01T13:20:17;97049.69;;;22.64;93.37
40502;BME280;29631;49.168;9.848;2022-07-01T13:22:44;97026.31;;;22.55;93.09
40502;BME280;29631;49.168;9.848;2022-07-01T13:25:11;97039.22;;;22.63;92.97
40502;BME280;29631;49.168;9.848;2022-07-01T13:27:38;97045.41;;;22.63;93.16
40502;BME280;29631;49.168;9.848;2022-07-01T13:30:06;97032.53;;;22.55;92.77
40502;BME280;29631;49.168;9.848;2022-07-01T13:32:32;97054.53;;;22.72;92.93
40502;BME280;29631;49.168;9.848;2022-07-01T13:34:58;97057.22;;;22.82;93.17
40502;BME280;29631;49.168;9.848;2022-07-01T13:37:24;97056.94;;;22.83;93.10